sensor_id;sensor_type;location;lat;lon;timestamp;P1;durP1;ratioP1;P2;durP2;ratioP2
14358;SDS011;7263;49.418;11.064;2023-12-29T00:01:40;3.37;;;2.77;;
14358;SDS011;7263;49.418;11.064;2023-12-29T00:04:07;3.93;;;2.17;;
14358;SDS011;7263;49.418;11.064;2023-12-29T00:06:38;5.00;;;2.40;;
14358;SDS011;7263;49.418;11.064;2023-12-29T00:09:05;3.03;;;2.13;;
14358;SDS011;7263;49.418;11.064;2023-12-29T00:11:35;5.73;;;2.53;;
14358;SDS011;7263;49.418;11.064;2023-12-29T00:14:11;2.97;;;2.10;;
14358;SDS011;7263;49.418;11.064;2023-12-29T00:16:37;3.10;;;1.80;;
14358;SDS011;7263;49.418;11.064;2023-12-29T00:19:04;4.87;;;2.20;;
14358;SDS011;7263;49.418;11.064;2023-12-29T00:21:35;3.63;;;2.10;;
14358;SDS011;7263;49.418;11.064;2023-12-29T00:24:07;3.97;;;2.23;;
14358;SDS011;7263;49.418;11.064;2023-12-29T00:26:36;4.23;;;2.47;;
14358;SDS011;7263;49.418;11.064;2023-12-29T00:29:06;3.77;;;2.20;;
14358;SDS011;7263;49.418;11.064;2023-12-29T00:31:35;6.87;;;2.60;;
14358;SDS011;7263;49.418;11.064;2023-12-29T00:34:05;5.83;;;2.10;;
14358;SDS011;7263;49.418;11.064;2023-12-29T00:36:34;5.93;;;2.67;;
14358;SDS011;7263;49.418;11.064;2023-12-29T00:39:08;8.40;;;2.90;;
14358;SDS011;7263;49.418;11.064;2023-12-29T00:41:40;5.00;;;2.93;;
14358;SDS011;7263;49.418;11.064;2023-12-29T00:44:14;4.10;;;2.30;;
14358;SDS011;7263;49.418;11.064;2023-12-29T00:46:41;3.10;;;2.10;;
14358;SDS011;7263;49.418;11.064;2023-12-29T00:49:10;4.43;;;2.60;;
14358;SDS011;7263;49.418;11.064;2023-12-29T00:51:38;2.77;;;2.00;;
14358;SDS011;7263;49.418;11.064;2023-12-29T00:54:20;2.07;;;1.80;;
14358;SDS011;7263;49.418;11.064;2023-12-29T00:56:53;2.27;;;1.90;;
14358;SDS011;7263;49.418;11.064;2023-12-29T00:59:26;2.50;;;1.60;;
14358;SDS011;7263;49.418;11.064;2023-12-29T01:01:53;3.77;;;1.57;;
14358;SDS011;7263;49.418;11.064;2023-12-29T01:04:26;1.70;;;1.53;;
14358;SDS011;7263;49.418;11.064;2023-12-29T01:06:55;2.03;;;1.50;;
14358;SDS011;7263;49.418;11.064;2023-12-29T01:09:27;1.90;;;1.70;;
14358;SDS011;7263;49.418;11.064;2023-12-29T01:11:53;1.70;;;1.60;;
14358;SDS011;7263;49.418;11.064;2023-12-29T01:14:20;1.40;;;1.30;;
14358;SDS011;7263;49.418;11.064;2023-12-29T01:16:50;2.50;;;1.40;;
14358;SDS011;7263;49.418;11.064;2023-12-29T01:19:17;1.70;;;1.53;;
14358;SDS011;7263;49.418;11.064;2023-12-29T01:21:45;2.77;;;1.60;;
14358;SDS011;7263;49.418;11.064;2023-12-29T01:24:12;2.37;;;1.93;;
14358;SDS011;7263;49.418;11.064;2023-12-29T01:26:41;2.37;;;1.53;;
14358;SDS011;7263;49.418;11.064;2023-12-29T01:29:10;1.97;;;1.57;;
14358;SDS011;7263;49.418;11.064;2023-12-29T01:31:40;1.63;;;1.47;;
14358;SDS011;7263;49.418;11.064;2023-12-29T01:34:07;1.73;;;1.60;;
14358;SDS011;7263;49.418;11.064;2023-12-29T01:36:38;1.90;;;1.30;;
14358;SDS011;7263;49.418;11.064;2023-12-29T01:39:08;2.20;;;1.60;;
14358;SDS011;7263;49.418;11.064;2023-12-29T01:41:41;3.00;;;1.50;;
14358;SDS011;7263;49.418;11.064;2023-12-29T01:44:18;2.30;;;1.70;;
14358;SDS011;7263;49.418;11.064;2023-12-29T01:46:58;2.67;;;1.37;;
14358;SDS011;7263;49.418;11.064;2023-12-29T01:49:26;2.10;;;1.30;;
14358;SDS011;7263;49.418;11.064;2023-12-29T01:51:57;1.50;;;1.40;;
14358;SDS011;7263;49.418;11.064;2023-12-29T01:54:31;3.23;;;1.50;;
14358;SDS011;7263;49.418;11.064;2023-12-29T01:57:10;1.67;;;1.57;;
14358;SDS011;7263;49.418;11.064;2023-12-29T01:59:43;1.63;;;1.40;;
14358;SDS011;7263;49.418;11.064;2023-12-29T02:02:12;2.00;;;1.60;;
14358;SDS011;7263;49.418;11.064;2023-12-29T02:04:40;2.27;;;1.50;;
14358;SDS011;7263;49.418;11.064;2023-12-29T02:07:11;3.57;;;1.60;;
14358;SDS011;7263;49.418;11.064;2023-12-29T02:09:47;2.00;;;1.77;;
14358;SDS011;7263;49.418;11.064;2023-12-29T02:12:17;2.53;;;1.53;;
14358;SDS011;7263;49.418;11.064;2023-12-29T02:14:47;2.00;;;1.80;;
14358;SDS011;7263;49.418;11.064;2023-12-29T02:17:15;2.97;;;1.80;;
14358;SDS011;7263;49.418;11.064;2023-12-29T02:19:47;2.40;;;2.00;;
14358;SDS011;7263;49.418;11.064;2023-12-29T02:22:15;6.53;;;1.90;;
14358;SDS011;7263;49.418;11.064;2023-12-29T02:24:54;2.63;;;1.90;;
14358;SDS011;7263;49.418;11.064;2023-12-29T02:27:25;2.60;;;2.13;;
14358;SDS011;7263;49.418;11.064;2023-12-29T02:30:08;2.90;;;2.60;;
14358;SDS011;7263;49.418;11.064;2023-12-29T02:32:47;2.03;;;1.90;;
14358;SDS011;7263;49.418;11.064;2023-12-29T02:35:18;2.77;;;2.27;;
14358;SDS011;7263;49.418;11.064;2023-12-29T02:37:57;2.63;;;2.40;;
14358;SDS011;7263;49.418;11.064;2023-12-29T02:40:57;3.57;;;2.50;;
14358;SDS011;7263;49.418;11.064;2023-12-29T02:43:38;2.33;;;2.13;;
14358;SDS011;7263;49.418;11.064;2023-12-29T02:46:05;4.20;;;2.30;;
14358;SDS011;7263;49.418;11.064;2023-12-29T02:48:32;5.43;;;4.73;;
14358;SDS011;7263;49.418;11.064;2023-12-29T02:51:01;3.67;;;2.60;;
14358;SDS011;7263;49.418;11.064;2023-12-29T02:53:28;3.10;;;2.60;;
14358;SDS011;7263;49.418;11.064;2023-12-29T02:56:02;3.10;;;2.80;;
14358;SDS011;7263;49.418;11.064;2023-12-29T02:58:35;3.40;;;2.83;;
14358;SDS011;7263;49.418;11.064;2023-12-29T03:01:01;2.70;;;2.40;;
14358;SDS011;7263;49.418;11.064;2023-12-29T03:03:28;2.57;;;2.37;;
14358;SDS011;7263;49.418;11.064;2023-12-29T03:05:55;3.80;;;2.93;;
14358;SDS011;7263;49.418;11.064;2023-12-29T03:08:22;3.60;;;2.60;;
14358;SDS011;7263;49.418;11.064;2023-12-29T03:10:48;4.87;;;2.90;;
14358;SDS011;7263;49.418;11.064;2023-12-29T03:13:17;3.07;;;2.73;;
14358;SDS011;7263;49.418;11.064;2023-12-29T03:15:46;3.37;;;2.70;;
14358;SDS011;7263;49.418;11.064;2023-12-29T03:18:13;3.20;;;2.60;;
14358;SDS011;7263;49.418;11.064;2023-12-29T03:20:40;3.60;;;2.90;;
14358;SDS011;7263;49.418;11.064;2023-12-29T03:23:07;2.83;;;2.40;;
14358;SDS011;7263;49.418;11.064;2023-12-29T03:25:35;3.17;;;2.53;;
14358;SDS011;7263;49.418;11.064;2023-12-29T03:28:11;5.27;;;2.80;;
14358;SDS011;7263;49.418;11.064;2023-12-29T03:30:50;4.13;;;2.80;;
14358;SDS011;7263;49.418;11.064;2023-12-29T03:33:17;4.50;;;2.80;;
14358;SDS011;7263;49.418;11.064;2023-12-29T03:35:44;3.60;;;3.00;;
14358;SDS011;7263;49.418;11.064;2023-12-29T03:38:23;3.03;;;2.73;;
14358;SDS011;7263;49.418;11.064;2023-12-29T03:40:52;4.03;;;2.90;;
14358;SDS011;7263;49.418;11.064;2023-12-29T03:43:25;3.23;;;2.93;;
14358;SDS011;7263;49.418;11.064;2023-12-29T03:45:54;3.03;;;2.80;;
14358;SDS011;7263;49.418;11.064;2023-12-29T03:48:20;3.40;;;3.10;;
14358;SDS011;7263;49.418;11.064;2023-12-29T03:50:50;4.27;;;3.00;;
14358;SDS011;7263;49.418;11.064;2023-12-29T03:53:17;3.43;;;3.00;;
14358;SDS011;7263;49.418;11.064;2023-12-29T03:55:47;6.03;;;3.20;;
14358;SDS011;7263;49.418;11.064;2023-12-29T03:58:17;4.40;;;3.03;;
14358;SDS011;7263;49.418;11.064;2023-12-29T04:00:44;4.27;;;3.37;;
14358;SDS011;7263;49.418;11.064;2023-12-29T04:03:12;3.60;;;2.87;;
14358;SDS011;7263;49.418;11.064;2023-12-29T04:05:39;4.43;;;3.00;;
14358;SDS011;7263;49.418;11.064;2023-12-29T04:08:08;4.10;;;3.10;;
14358;SDS011;7263;49.418;11.064;2023-12-29T04:10:38;3.90;;;3.10;;
14358;SDS011;7263;49.418;11.064;2023-12-29T04:13:05;3.40;;;3.03;;
14358;SDS011;7263;49.418;11.064;2023-12-29T04:15:36;3.20;;;2.90;;
14358;SDS011;7263;49.418;11.064;2023-12-29T04:18:03;3.37;;;2.90;;
14358;SDS011;7263;49.418;11.064;2023-12-29T04:20:34;4.37;;;3.23;;
14358;SDS011;7263;49.418;11.064;2023-12-29T04:23:14;3.23;;;2.90;;
14358;SDS011;7263;49.418;11.064;2023-12-29T04:25:46;5.07;;;3.23;;
14358;SDS011;7263;49.418;11.064;2023-12-29T04:28:15;3.00;;;2.70;;
14358;SDS011;7263;49.418;11.064;2023-12-29T04:30:44;3.83;;;3.07;;
14358;SDS011;7263;49.418;11.064;2023-12-29T04:33:23;3.37;;;2.80;;
14358;SDS011;7263;49.418;11.064;2023-12-29T04:35:52;3.93;;;2.53;;
14358;SDS011;7263;49.418;11.064;2023-12-29T04:38:18;3.20;;;2.90;;
14358;SDS011;7263;49.418;11.064;2023-12-29T04:40:48;3.73;;;2.77;;
14358;SDS011;7263;49.418;11.064;2023-12-29T04:43:14;4.50;;;3.00;;
14358;SDS011;7263;49.418;11.064;2023-12-29T04:45:43;2.70;;;2.47;;
14358;SDS011;7263;49.418;11.064;2023-12-29T04:48:16;2.93;;;2.63;;
14358;SDS011;7263;49.418;11.064;2023-12-29T04:50:43;3.87;;;2.60;;
14358;SDS011;7263;49.418;11.064;2023-12-29T04:53:18;3.70;;;2.87;;
14358;SDS011;7263;49.418;11.064;2023-12-29T04:55:45;3.70;;;2.70;;
14358;SDS011;7263;49.418;11.064;2023-12-29T04:58:12;3.03;;;2.60;;
14358;SDS011;7263;49.418;11.064;2023-12-29T05:00:46;3.30;;;2.97;;
14358;SDS011;7263;49.418;11.064;2023-12-29T05:03:19;3.20;;;2.90;;
14358;SDS011;7263;49.418;11.064;2023-12-29T05:05:52;3.80;;;3.20;;
14358;SDS011;7263;49.418;11.064;2023-12-29T05:08:25;3.17;;;2.80;;
14358;SDS011;7263;49.418;11.064;2023-12-29T05:10:52;2.90;;;2.70;;
14358;SDS011;7263;49.418;11.064;2023-12-29T05:13:22;3.90;;;2.77;;
14358;SDS011;7263;49.418;11.064;2023-12-29T05:15:49;3.87;;;3.00;;
14358;SDS011;7263;49.418;11.064;2023-12-29T05:18:15;4.30;;;3.27;;
14358;SDS011;7263;49.418;11.064;2023-12-29T05:20:45;4.40;;;3.20;;
14358;SDS011;7263;49.418;11.064;2023-12-29T05:23:14;3.50;;;2.77;;
14358;SDS011;7263;49.418;11.064;2023-12-29T05:25:44;3.50;;;3.20;;
14358;SDS011;7263;49.418;11.064;2023-12-29T05:28:11;4.63;;;2.90;;
14358;SDS011;7263;49.418;11.064;2023-12-29T05:30:40;3.97;;;3.10;;
14358;SDS011;7263;49.418;11.064;2023-12-29T05:33:10;2.90;;;2.60;;
14358;SDS011;7263;49.418;11.064;2023-12-29T05:35:37;5.23;;;3.40;;
14358;SDS011;7263;49.418;11.064;2023-12-29T05:38:14;3.87;;;3.10;;
14358;SDS011;7263;49.418;11.064;2023-12-29T05:40:45;3.53;;;3.00;;
14358;SDS011;7263;49.418;11.064;2023-12-29T05:43:15;3.63;;;3.33;;
14358;SDS011;7263;49.418;11.064;2023-12-29T05:45:42;4.10;;;3.17;;
14358;SDS011;7263;49.418;11.064;2023-12-29T05:48:11;3.80;;;3.23;;
14358;SDS011;7263;49.418;11.064;2023-12-29T05:50:41;4.73;;;3.30;;
14358;SDS011;7263;49.418;11.064;2023-12-29T05:53:09;4.37;;;3.10;;
14358;SDS011;7263;49.418;11.064;2023-12-29T05:55:46;4.07;;;3.30;;
14358;SDS011;7263;49.418;11.064;2023-12-29T05:58:22;4.50;;;2.77;;
14358;SDS011;7263;49.418;11.064;2023-12-29T06:00:49;3.87;;;3.33;;
14358;SDS011;7263;49.418;11.064;2023-12-29T06:03:23;4.77;;;3.47;;
14358;SDS011;7263;49.418;11.064;2023-12-29T06:05:54;5.67;;;3.80;;
14358;SDS011;7263;49.418;11.064;2023-12-29T06:08:24;4.77;;;3.60;;
14358;SDS011;7263;49.418;11.064;2023-12-29T06:13:47;4.20;;;3.60;;
14358;SDS011;7263;49.418;11.064;2023-12-29T06:16:17;3.80;;;3.10;;
14358;SDS011;7263;49.418;11.064;2023-12-29T06:18:47;10.50;;;6.90;;
14358;SDS011;7263;49.418;11.064;2023-12-29T06:21:16;5.30;;;3.80;;
14358;SDS011;7263;49.418;11.064;2023-12-29T06:23:52;4.33;;;3.60;;
14358;SDS011;7263;49.418;11.064;2023-12-29T06:26:23;5.83;;;3.87;;
14358;SDS011;7263;49.418;11.064;2023-12-29T06:28:53;5.30;;;4.80;;
14358;SDS011;7263;49.418;11.064;2023-12-29T06:31:20;5.10;;;4.60;;
14358;SDS011;7263;49.418;11.064;2023-12-29T06:33:56;4.83;;;4.30;;
14358;SDS011;7263;49.418;11.064;2023-12-29T06:36:29;7.20;;;5.30;;
14358;SDS011;7263;49.418;11.064;2023-12-29T06:38:56;5.13;;;4.63;;
14358;SDS011;7263;49.418;11.064;2023-12-29T06:41:30;5.07;;;4.57;;
14358;SDS011;7263;49.418;11.064;2023-12-29T06:44:03;4.90;;;4.40;;
14358;SDS011;7263;49.418;11.064;2023-12-29T06:46:30;6.10;;;5.50;;
14358;SDS011;7263;49.418;11.064;2023-12-29T06:49:04;5.23;;;4.30;;
14358;SDS011;7263;49.418;11.064;2023-12-29T06:51:37;5.77;;;4.13;;
14358;SDS011;7263;49.418;11.064;2023-12-29T06:54:06;4.63;;;3.73;;
14358;SDS011;7263;49.418;11.064;2023-12-29T06:56:37;3.83;;;3.40;;
14358;SDS011;7263;49.418;11.064;2023-12-29T06:59:07;6.80;;;3.73;;
14358;SDS011;7263;49.418;11.064;2023-12-29T07:01:34;5.60;;;3.80;;
14358;SDS011;7263;49.418;11.064;2023-12-29T07:04:05;3.37;;;3.07;;
14358;SDS011;7263;49.418;11.064;2023-12-29T07:06:35;4.50;;;3.53;;
14358;SDS011;7263;49.418;11.064;2023-12-29T07:09:05;5.47;;;3.63;;
14358;SDS011;7263;49.418;11.064;2023-12-29T07:11:36;4.83;;;3.27;;
14358;SDS011;7263;49.418;11.064;2023-12-29T07:14:08;4.73;;;3.50;;
14358;SDS011;7263;49.418;11.064;2023-12-29T07:16:35;4.13;;;3.63;;
14358;SDS011;7263;49.418;11.064;2023-12-29T07:19:05;3.33;;;3.00;;
14358;SDS011;7263;49.418;11.064;2023-12-29T07:21:40;3.87;;;3.43;;
14358;SDS011;7263;49.418;11.064;2023-12-29T07:24:09;3.60;;;3.20;;
14358;SDS011;7263;49.418;11.064;2023-12-29T07:26:41;3.77;;;2.93;;
14358;SDS011;7263;49.418;11.064;2023-12-29T07:29:10;3.27;;;2.87;;
14358;SDS011;7263;49.418;11.064;2023-12-29T07:31:38;3.10;;;2.70;;
14358;SDS011;7263;49.418;11.064;2023-12-29T07:34:08;3.97;;;2.43;;
14358;SDS011;7263;49.418;11.064;2023-12-29T07:36:37;4.67;;;2.83;;
14358;SDS011;7263;49.418;11.064;2023-12-29T07:39:08;4.40;;;2.90;;
14358;SDS011;7263;49.418;11.064;2023-12-29T07:41:40;3.13;;;2.60;;
14358;SDS011;7263;49.418;11.064;2023-12-29T07:44:20;5.77;;;2.70;;
14358;SDS011;7263;49.418;11.064;2023-12-29T07:46:50;2.63;;;2.33;;
14358;SDS011;7263;49.418;11.064;2023-12-29T07:49:17;2.53;;;2.00;;
14358;SDS011;7263;49.418;11.064;2023-12-29T07:51:46;3.10;;;2.33;;
14358;SDS011;7263;49.418;11.064;2023-12-29T07:54:27;2.60;;;2.40;;
14358;SDS011;7263;49.418;11.064;2023-12-29T07:56:55;3.60;;;2.40;;
14358;SDS011;7263;49.418;11.064;2023-12-29T07:59:24;2.20;;;2.00;;
14358;SDS011;7263;49.418;11.064;2023-12-29T08:01:51;5.17;;;2.30;;
14358;SDS011;7263;49.418;11.064;2023-12-29T08:04:21;3.10;;;2.30;;
14358;SDS011;7263;49.418;11.064;2023-12-29T08:06:53;2.30;;;2.10;;
14358;SDS011;7263;49.418;11.064;2023-12-29T08:09:20;2.83;;;2.00;;
14358;SDS011;7263;49.418;11.064;2023-12-29T08:12:04;2.33;;;2.13;;
14358;SDS011;7263;49.418;11.064;2023-12-29T08:14:34;2.10;;;1.90;;
14358;SDS011;7263;49.418;11.064;2023-12-29T08:17:07;2.50;;;2.07;;
14358;SDS011;7263;49.418;11.064;2023-12-29T08:19:51;2.63;;;2.20;;
14358;SDS011;7263;49.418;11.064;2023-12-29T08:22:18;2.37;;;1.97;;
14358;SDS011;7263;49.418;11.064;2023-12-29T08:24:45;3.13;;;2.47;;
14358;SDS011;7263;49.418;11.064;2023-12-29T08:27:13;2.70;;;2.43;;
14358;SDS011;7263;49.418;11.064;2023-12-29T08:29:41;2.47;;;1.93;;
14358;SDS011;7263;49.418;11.064;2023-12-29T08:32:13;2.50;;;2.10;;
14358;SDS011;7263;49.418;11.064;2023-12-29T08:34:43;2.37;;;1.67;;
14358;SDS011;7263;49.418;11.064;2023-12-29T08:37:12;1.70;;;1.60;;
14358;SDS011;7263;49.418;11.064;2023-12-29T08:39:44;2.57;;;1.80;;
14358;SDS011;7263;49.418;11.064;2023-12-29T08:42:21;2.03;;;1.50;;
14358;SDS011;7263;49.418;11.064;2023-12-29T08:44:47;2.60;;;1.50;;
14358;SDS011;7263;49.418;11.064;2023-12-29T08:47:14;1.53;;;1.23;;
14358;SDS011;7263;49.418;11.064;2023-12-29T08:49:41;1.10;;;1.00;;
14358;SDS011;7263;49.418;11.064;2023-12-29T08:52:11;1.10;;;1.00;;
14358;SDS011;7263;49.418;11.064;2023-12-29T08:54:50;1.17;;;0.80;;
14358;SDS011;7263;49.418;11.064;2023-12-29T08:57:23;1.10;;;1.00;;
14358;SDS011;7263;49.418;11.064;2023-12-29T08:59:49;1.60;;;1.00;;
14358;SDS011;7263;49.418;11.064;2023-12-29T09:02:25;1.80;;;1.10;;
14358;SDS011;7263;49.418;11.064;2023-12-29T09:04:52;0.80;;;0.80;;
14358;SDS011;7263;49.418;11.064;2023-12-29T09:07:19;1.43;;;0.90;;
14358;SDS011;7263;49.418;11.064;2023-12-29T09:09:48;1.63;;;1.10;;
14358;SDS011;7263;49.418;11.064;2023-12-29T09:12:18;0.87;;;0.73;;
14358;SDS011;7263;49.418;11.064;2023-12-29T09:14:52;1.33;;;0.90;;
14358;SDS011;7263;49.418;11.064;2023-12-29T09:17:28;0.67;;;0.63;;
14358;SDS011;7263;49.418;11.064;2023-12-29T09:19:55;0.80;;;0.80;;
14358;SDS011;7263;49.418;11.064;2023-12-29T09:22:22;1.10;;;1.00;;
14358;SDS011;7263;49.418;11.064;2023-12-29T09:24:56;0.83;;;0.80;;
14358;SDS011;7263;49.418;11.064;2023-12-29T09:27:32;0.90;;;0.80;;
14358;SDS011;7263;49.418;11.064;2023-12-29T09:30:03;1.03;;;0.70;;
14358;SDS011;7263;49.418;11.064;2023-12-29T09:32:30;0.73;;;0.73;;
14358;SDS011;7263;49.418;11.064;2023-12-29T09:35:06;0.80;;;0.70;;
14358;SDS011;7263;49.418;11.064;2023-12-29T09:37:35;1.00;;;0.80;;
14358;SDS011;7263;49.418;11.064;2023-12-29T09:40:05;1.00;;;0.90;;
14358;SDS011;7263;49.418;11.064;2023-12-29T09:42:44;1.87;;;0.90;;
14358;SDS011;7263;49.418;11.064;2023-12-29T09:45:13;0.90;;;0.80;;
14358;SDS011;7263;49.418;11.064;2023-12-29T09:47:47;0.90;;;0.90;;
14358;SDS011;7263;49.418;11.064;2023-12-29T09:50:17;1.30;;;1.00;;
14358;SDS011;7263;49.418;11.064;2023-12-29T09:52:47;1.03;;;0.93;;
14358;SDS011;7263;49.418;11.064;2023-12-29T09:55:15;1.13;;;1.00;;
14358;SDS011;7263;49.418;11.064;2023-12-29T09:57:50;2.73;;;1.20;;
14358;SDS011;7263;49.418;11.064;2023-12-29T10:00:24;1.13;;;1.00;;
14358;SDS011;7263;49.418;11.064;2023-12-29T10:02:54;1.90;;;1.70;;
14358;SDS011;7263;49.418;11.064;2023-12-29T10:05:25;2.20;;;1.80;;
14358;SDS011;7263;49.418;11.064;2023-12-29T10:07:52;3.13;;;1.90;;
14358;SDS011;7263;49.418;11.064;2023-12-29T10:10:23;2.90;;;2.00;;
14358;SDS011;7263;49.418;11.064;2023-12-29T10:12:52;2.17;;;1.83;;
14358;SDS011;7263;49.418;11.064;2023-12-29T10:15:39;3.90;;;2.00;;
14358;SDS011;7263;49.418;11.064;2023-12-29T10:18:14;2.77;;;1.80;;
14358;SDS011;7263;49.418;11.064;2023-12-29T10:21:01;3.97;;;2.00;;
14358;SDS011;7263;49.418;11.064;2023-12-29T10:23:38;4.90;;;2.17;;
14358;SDS011;7263;49.418;11.064;2023-12-29T10:26:14;2.47;;;2.23;;
14358;SDS011;7263;49.418;11.064;2023-12-29T10:28:45;2.20;;;1.90;;
14358;SDS011;7263;49.418;11.064;2023-12-29T10:31:15;2.17;;;1.87;;
14358;SDS011;7263;49.418;11.064;2023-12-29T10:33:45;2.67;;;2.20;;
14358;SDS011;7263;49.418;11.064;2023-12-29T10:36:16;3.10;;;2.60;;
14358;SDS011;7263;49.418;11.064;2023-12-29T10:38:43;2.97;;;2.30;;
14358;SDS011;7263;49.418;11.064;2023-12-29T10:41:14;3.87;;;2.70;;
14358;SDS011;7263;49.418;11.064;2023-12-29T10:43:46;3.57;;;2.80;;
14358;SDS011;7263;49.418;11.064;2023-12-29T10:46:17;3.47;;;2.90;;
14358;SDS011;7263;49.418;11.064;2023-12-29T10:48:49;2.63;;;2.43;;
14358;SDS011;7263;49.418;11.064;2023-12-29T10:51:26;3.10;;;2.80;;
14358;SDS011;7263;49.418;11.064;2023-12-29T10:54:04;3.37;;;2.83;;
14358;SDS011;7263;49.418;11.064;2023-12-29T10:56:31;4.23;;;2.67;;
14358;SDS011;7263;49.418;11.064;2023-12-29T10:59:02;3.13;;;2.80;;
14358;SDS011;7263;49.418;11.064;2023-12-29T11:01:32;3.03;;;2.30;;
14358;SDS011;7263;49.418;11.064;2023-12-29T11:04:00;4.27;;;2.83;;
14358;SDS011;7263;49.418;11.064;2023-12-29T11:06:39;3.87;;;2.80;;
14358;SDS011;7263;49.418;11.064;2023-12-29T11:09:28;4.57;;;2.60;;
14358;SDS011;7263;49.418;11.064;2023-12-29T11:11:56;3.00;;;2.70;;
14358;SDS011;7263;49.418;11.064;2023-12-29T11:14:26;2.90;;;2.63;;
14358;SDS011;7263;49.418;11.064;2023-12-29T11:16:54;4.03;;;3.20;;
14358;SDS011;7263;49.418;11.064;2023-12-29T11:19:21;3.20;;;2.90;;
14358;SDS011;7263;49.418;11.064;2023-12-29T11:21:48;4.73;;;2.60;;
14358;SDS011;7263;49.418;11.064;2023-12-29T11:24:24;3.67;;;2.90;;
14358;SDS011;7263;49.418;11.064;2023-12-29T11:26:54;4.40;;;2.80;;
14358;SDS011;7263;49.418;11.064;2023-12-29T11:29:29;3.37;;;2.93;;
14358;SDS011;7263;49.418;11.064;2023-12-29T11:31:58;2.57;;;2.37;;
14358;SDS011;7263;49.418;11.064;2023-12-29T11:34:33;5.83;;;2.80;;
14358;SDS011;7263;49.418;11.064;2023-12-29T11:37:14;3.83;;;2.53;;
14358;SDS011;7263;49.418;11.064;2023-12-29T11:40:14;3.40;;;2.63;;
14358;SDS011;7263;49.418;11.064;2023-12-29T11:42:51;3.83;;;2.50;;
14358;SDS011;7263;49.418;11.064;2023-12-29T11:45:25;3.40;;;2.70;;
14358;SDS011;7263;49.418;11.064;2023-12-29T11:47:57;4.40;;;2.30;;
14358;SDS011;7263;49.418;11.064;2023-12-29T11:50:30;3.80;;;2.47;;
14358;SDS011;7263;49.418;11.064;2023-12-29T11:53:06;2.57;;;2.37;;
14358;SDS011;7263;49.418;11.064;2023-12-29T11:55:56;3.20;;;2.20;;
14358;SDS011;7263;49.418;11.064;2023-12-29T11:58:29;5.67;;;2.43;;
14358;SDS011;7263;49.418;11.064;2023-12-29T12:00:58;2.87;;;2.17;;
14358;SDS011;7263;49.418;11.064;2023-12-29T12:03:30;2.77;;;2.33;;
14358;SDS011;7263;49.418;11.064;2023-12-29T12:05:57;3.20;;;2.30;;
14358;SDS011;7263;49.418;11.064;2023-12-29T12:08:29;2.10;;;1.83;;
14358;SDS011;7263;49.418;11.064;2023-12-29T12:14:08;1.83;;;1.70;;
14358;SDS011;7263;49.418;11.064;2023-12-29T12:16:51;1.90;;;1.50;;
14358;SDS011;7263;49.418;11.064;2023-12-29T12:19:21;2.63;;;1.73;;
14358;SDS011;7263;49.418;11.064;2023-12-29T12:21:55;3.53;;;2.13;;
14358;SDS011;7263;49.418;11.064;2023-12-29T12:24:25;1.47;;;1.10;;
14358;SDS011;7263;49.418;11.064;2023-12-29T12:26:55;1.57;;;1.07;;
14358;SDS011;7263;49.418;11.064;2023-12-29T12:29:24;1.50;;;0.93;;
14358;SDS011;7263;49.418;11.064;2023-12-29T12:31:54;1.00;;;0.90;;
14358;SDS011;7263;49.418;11.064;2023-12-29T12:34:24;1.00;;;0.77;;
14358;SDS011;7263;49.418;11.064;2023-12-29T12:37:02;0.87;;;0.80;;
14358;SDS011;7263;49.418;11.064;2023-12-29T12:39:40;1.17;;;0.63;;
14358;SDS011;7263;49.418;11.064;2023-12-29T12:42:09;0.63;;;0.63;;
14358;SDS011;7263;49.418;11.064;2023-12-29T12:44:37;1.03;;;0.60;;
14358;SDS011;7263;49.418;11.064;2023-12-29T12:47:08;0.80;;;0.80;;
14358;SDS011;7263;49.418;11.064;2023-12-29T12:49:40;0.93;;;0.80;;
14358;SDS011;7263;49.418;11.064;2023-12-29T12:52:08;0.67;;;0.63;;
14358;SDS011;7263;49.418;11.064;2023-12-29T12:54:35;0.57;;;0.57;;
14358;SDS011;7263;49.418;11.064;2023-12-29T12:57:05;1.33;;;0.73;;
14358;SDS011;7263;49.418;11.064;2023-12-29T12:59:32;1.00;;;0.90;;
14358;SDS011;7263;49.418;11.064;2023-12-29T13:01:59;2.23;;;0.80;;
14358;SDS011;7263;49.418;11.064;2023-12-29T13:04:29;1.13;;;0.90;;
14358;SDS011;7263;49.418;11.064;2023-12-29T13:06:59;1.10;;;1.00;;
14358;SDS011;7263;49.418;11.064;2023-12-29T13:09:31;0.93;;;0.70;;
14358;SDS011;7263;49.418;11.064;2023-12-29T13:12:12;1.10;;;1.00;;
14358;SDS011;7263;49.418;11.064;2023-12-29T13:14:46;0.70;;;0.70;;
14358;SDS011;7263;49.418;11.064;2023-12-29T13:17:30;1.00;;;0.90;;
14358;SDS011;7263;49.418;11.064;2023-12-29T13:20:01;0.73;;;0.73;;
14358;SDS011;7263;49.418;11.064;2023-12-29T13:22:32;1.10;;;0.83;;
14358;SDS011;7263;49.418;11.064;2023-12-29T13:25:11;1.20;;;0.90;;
14358;SDS011;7263;49.418;11.064;2023-12-29T13:27:44;1.53;;;1.33;;
14358;SDS011;7263;49.418;11.064;2023-12-29T13:30:18;1.63;;;1.10;;
14358;SDS011;7263;49.418;11.064;2023-12-29T13:32:48;1.00;;;0.90;;
14358;SDS011;7263;49.418;11.064;2023-12-29T13:35:21;1.20;;;0.90;;
14358;SDS011;7263;49.418;11.064;2023-12-29T13:37:55;2.00;;;1.00;;
14358;SDS011;7263;49.418;11.064;2023-12-29T13:40:31;0.60;;;0.50;;
14358;SDS011;7263;49.418;11.064;2023-12-29T13:43:03;0.60;;;0.60;;
14358;SDS011;7263;49.418;11.064;2023-12-29T13:45:45;0.80;;;0.80;;
14358;SDS011;7263;49.418;11.064;2023-12-29T13:48:12;1.70;;;0.97;;
14358;SDS011;7263;49.418;11.064;2023-12-29T13:50:51;0.93;;;0.87;;
14358;SDS011;7263;49.418;11.064;2023-12-29T13:53:18;1.57;;;1.20;;
14358;SDS011;7263;49.418;11.064;2023-12-29T13:55:46;3.10;;;1.40;;
14358;SDS011;7263;49.418;11.064;2023-12-29T13:58:12;0.90;;;0.87;;
14358;SDS011;7263;49.418;11.064;2023-12-29T14:00:40;1.00;;;0.80;;
14358;SDS011;7263;49.418;11.064;2023-12-29T14:03:11;2.03;;;0.90;;
14358;SDS011;7263;49.418;11.064;2023-12-29T14:06:00;0.40;;;0.40;;
14358;SDS011;7263;49.418;11.064;2023-12-29T14:08:33;1.40;;;1.10;;
14358;SDS011;7263;49.418;11.064;2023-12-29T14:11:06;2.17;;;1.20;;
14358;SDS011;7263;49.418;11.064;2023-12-29T14:13:41;2.23;;;0.93;;
14358;SDS011;7263;49.418;11.064;2023-12-29T14:16:11;0.77;;;0.70;;
14358;SDS011;7263;49.418;11.064;2023-12-29T14:18:54;2.43;;;1.30;;
14358;SDS011;7263;49.418;11.064;2023-12-29T14:21:26;1.00;;;0.70;;
14358;SDS011;7263;49.418;11.064;2023-12-29T14:24:01;0.80;;;0.80;;
14358;SDS011;7263;49.418;11.064;2023-12-29T14:26:40;1.17;;;0.80;;
14358;SDS011;7263;49.418;11.064;2023-12-29T14:29:10;2.00;;;0.60;;
14358;SDS011;7263;49.418;11.064;2023-12-29T14:31:37;0.50;;;0.50;;
14358;SDS011;7263;49.418;11.064;2023-12-29T14:34:08;1.40;;;0.90;;
14358;SDS011;7263;49.418;11.064;2023-12-29T14:36:38;1.10;;;0.80;;
14358;SDS011;7263;49.418;11.064;2023-12-29T14:39:11;1.13;;;1.00;;
14358;SDS011;7263;49.418;11.064;2023-12-29T14:41:40;1.73;;;1.20;;
14358;SDS011;7263;49.418;11.064;2023-12-29T14:44:17;0.83;;;0.83;;
14358;SDS011;7263;49.418;11.064;2023-12-29T14:46:48;1.10;;;1.00;;
14358;SDS011;7263;49.418;11.064;2023-12-29T14:49:15;1.33;;;1.13;;
14358;SDS011;7263;49.418;11.064;2023-12-29T14:52:01;1.90;;;1.13;;
14358;SDS011;7263;49.418;11.064;2023-12-29T14:54:30;1.33;;;1.23;;
14358;SDS011;7263;49.418;11.064;2023-12-29T14:56:59;2.10;;;1.13;;
14358;SDS011;7263;49.418;11.064;2023-12-29T14:59:31;1.53;;;1.40;;
14358;SDS011;7263;49.418;11.064;2023-12-29T15:02:01;1.80;;;1.50;;
14358;SDS011;7263;49.418;11.064;2023-12-29T15:04:35;2.33;;;1.60;;
14358;SDS011;7263;49.418;11.064;2023-12-29T15:07:11;1.50;;;1.33;;
14358;SDS011;7263;49.418;11.064;2023-12-29T15:09:50;2.87;;;1.40;;
14358;SDS011;7263;49.418;11.064;2023-12-29T15:12:26;1.87;;;1.27;;
14358;SDS011;7263;49.418;11.064;2023-12-29T15:14:52;0.93;;;0.83;;
14358;SDS011;7263;49.418;11.064;2023-12-29T15:17:19;1.00;;;0.90;;
14358;SDS011;7263;49.418;11.064;2023-12-29T15:19:46;1.37;;;1.10;;